TimeCST,TemperatureF,Dew PointF,Humidity,Sea Level PressureIn,VisibilityMPH,Wind Direction,Wind SpeedMPH,Gust SpeedMPH,PrecipitationIn,Events,Conditions,WindDirDegrees,DateUTC
12:52 AM,10.0,6.1,84,30.47,10.0,Calm,Calm,-,N/A,,Clear,0,2012-11-27 06:52:00
1:52 AM,10.0,6.1,84,30.46,10.0,SE,3.5,-,N/A,,Clear,130,2012-11-27 07:52:00
2:52 AM,10.0,6.1,84,30.45,10.0,ESE,8.1,-,N/A,,Clear,110,2012-11-27 08:52:00
3:52 AM,10.9,5.0,77,30.42,10.0,ESE,8.1,-,N/A,,Clear,110,2012-11-27 09:52:00
4:52 AM,12.0,7.0,80,30.39,10.0,ESE,8.1,-,N/A,,Clear,120,2012-11-27 10:52:00
5:52 AM,10.9,7.0,84,30.39,10.0,ESE,6.9,-,N/A,,Clear,120,2012-11-27 11:52:00
6:52 AM,14.0,10.0,84,30.36,10.0,ESE,9.2,-,N/A,,Clear,120,2012-11-27 12:52:00
7:52 AM,14.0,10.9,88,30.35,10.0,ESE,8.1,-,N/A,,Clear,120,2012-11-27 13:52:00
8:52 AM,19.0,16.0,88,30.35,10.0,SE,8.1,-,N/A,,Partly Cloudy,140,2012-11-27 14:52:00
9:52 AM,27.0,21.0,78,30.32,10.0,South,13.8,-,N/A,,Partly Cloudy,190,2012-11-27 15:52:00
10:52 AM,33.1,23.0,66,30.30,10.0,South,13.8,-,N/A,,Clear,190,2012-11-27 16:52:00
11:52 AM,37.0,24.1,59,30.25,10.0,SSW,19.6,-,N/A,,Clear,200,2012-11-27 17:52:00
12:52 PM,37.9,25.0,60,30.22,10.0,South,13.8,-,N/A,,Clear,190,2012-11-27 18:52:00
1:52 PM,43.0,26.1,51,30.19,10.0,SW,18.4,24.2,0.01,,Clear,230,2012-11-27 19:52:00
2:52 PM,41.0,26.1,55,30.18,10.0,WSW,15.0,-,N/A,,Clear,250,2012-11-27 20:52:00
3:52 PM,41.0,25.0,53,30.20,10.0,West,9.2,-,N/A,,Clear,280,2012-11-27 21:52:00
4:52 PM,37.4,24.8,60,30.17,10.0,WNW,6.9,-,N/A,,Clear,290,2012-11-27 22:52:00
5:52 PM,33.1,21.9,64,30.25,10.0,West,3.5,-,N/A,,Clear,280,2012-11-27 23:52:00
6:52 PM,28.9,21.9,75,30.27,10.0,WNW,4.6,-,N/A,,Clear,290,2012-11-28 00:52:00
7:52 PM,28.0,19.9,72,30.29,10.0,WNW,5.8,-,N/A,,Clear,300,2012-11-28 01:52:00
8:52 PM,26.1,19.9,78,30.31,10.0,Calm,Calm,-,N/A,,Clear,0,2012-11-28 02:52:00
9:52 PM,28.9,21.9,75,30.32,10.0,North,4.6,-,N/A,,Clear,350,2012-11-28 03:52:00
10:52 PM,24.1,19.9,84,30.33,10.0,WNW,4.6,-,N/A,,Clear,300,2012-11-28 04:52:00
11:52 PM,21.9,18.0,85,30.34,10.0,NNW,8.1,-,N/A,,Clear,330,2012-11-28 05:52:00